sensor_id;sensor_type;location;lat;lon;timestamp;pressure;altitude;pressure_sealevel;temperature;humidity
24962;BME280;12992;50.884;13.668;2023-04-23T00:00:26;96400.56;;;15.94;59.51
24962;BME280;12992;50.884;13.668;2023-04-23T00:02:52;96411.72;;;15.97;59.21
24962;BME280;12992;50.884;13.668;2023-04-23T00:05:18;96397.34;;;15.92;59.39
24962;BME280;12992;50.884;13.668;2023-04-23T00:07:44;96398.94;;;15.93;59.54
24962;BME280;12992;50.884;13.668;2023-04-23T00:10:10;96392.66;;;15.92;59.46
24962;BME280;12992;50.884;13.668;2023-04-23T00:12:36;96388.28;;;15.91;59.25
24962;BME280;12992;50.884;13.668;2023-04-23T00:15:03;96386.16;;;15.88;59.88
24962;BME280;12992;50.884;13.668;2023-04-23T00:17:28;96391.63;;;15.88;59.41
24962;BME280;12992;50.884;13.668;2023-04-23T00:19:54;96393.78;;;15.91;59.78
24962;BME280;12992;50.884;13.668;2023-04-23T00:22:19;96396.53;;;15.91;59.83
24962;BME280;12992;50.884;13.668;2023-04-23T00:24:44;96391.03;;;15.91;59.70
24962;BME280;12992;50.884;13.668;2023-04-23T00:27:10;96392.44;;;15.89;59.82
24962;BME280;12992;50.884;13.668;2023-04-23T00:29:35;96383.06;;;15.90;59.90
24962;BME280;12992;50.884;13.668;2023-04-23T00:32:00;96389.09;;;15.92;59.58
24962;BME280;12992;50.884;13.668;2023-04-23T00:34:27;96397.34;;;15.92;59.58
24962;BME280;12992;50.884;13.668;2023-04-23T00:36:52;96391.03;;;15.91;59.73
24962;BME280;12992;50.884;13.668;2023-04-23T00:39:18;96383.88;;;15.90;59.41
24962;BME280;12992;50.884;13.668;2023-04-23T00:41:44;96383.06;;;15.90;59.83
24962;BME280;12992;50.884;13.668;2023-04-23T00:44:09;96380.16;;;15.86;60.19
24962;BME280;12992;50.884;13.668;2023-04-23T00:46:35;96382.09;;;15.85;59.86
24962;BME280;12992;50.884;13.668;2023-04-23T00:49:01;96382.03;;;15.77;60.57
24962;BME280;12992;50.884;13.668;2023-04-23T00:51:27;96366.47;;;15.72;60.45
24962;BME280;12992;50.884;13.668;2023-04-23T00:53:54;96370.69;;;15.70;60.56
24962;BME280;12992;50.884;13.668;2023-04-23T00:56:20;96363.72;;;15.64;60.82
24962;BME280;12992;50.884;13.668;2023-04-23T00:58:46;96371.63;;;15.65;60.71
24962;BME280;12992;50.884;13.668;2023-04-23T01:01:12;96371.41;;;15.62;61.18
24962;BME280;12992;50.884;13.668;2023-04-23T01:03:38;96372.03;;;15.58;61.05
24962;BME280;12992;50.884;13.668;2023-04-23T01:06:05;96367.16;;;15.55;61.02
24962;BME280;12992;50.884;13.668;2023-04-23T01:08:31;96373.75;;;15.54;61.03
24962;BME280;12992;50.884;13.668;2023-04-23T01:10:58;96373.75;;;15.54;61.37
24962;BME280;12992;50.884;13.668;2023-04-23T01:13:24;96369.03;;;15.46;61.93
24962;BME280;12992;50.884;13.668;2023-04-23T01:15:54;96363.47;;;15.38;62.25
24962;BME280;12992;50.884;13.668;2023-04-23T01:18:20;96354.88;;;15.17;64.85
24962;BME280;12992;50.884;13.668;2023-04-23T01:20:45;96358.09;;;15.19;63.45
24962;BME280;12992;50.884;13.668;2023-04-23T01:23:11;96363.50;;;15.24;62.97
24962;BME280;12992;50.884;13.668;2023-04-23T01:25:37;96362.59;;;15.15;63.23
24962;BME280;12992;50.884;13.668;2023-04-23T01:28:04;96351.72;;;15.10;63.16
24962;BME280;12992;50.884;13.668;2023-04-23T01:30:30;96344.06;;;14.98;63.80
24962;BME280;12992;50.884;13.668;2023-04-23T01:32:56;96352.09;;;14.94;65.18
24962;BME280;12992;50.884;13.668;2023-04-23T01:35:23;96345.31;;;14.78;66.42
24962;BME280;12992;50.884;13.668;2023-04-23T01:37:49;96342.88;;;14.63;67.59
24962;BME280;12992;50.884;13.668;2023-04-23T01:40:19;96342.59;;;14.51;68.17
24962;BME280;12992;50.884;13.668;2023-04-23T01:42:45;96342.78;;;14.40;69.54
24962;BME280;12992;50.884;13.668;2023-04-23T01:45:10;96336.97;;;14.28;70.91
24962;BME280;12992;50.884;13.668;2023-04-23T01:47:36;96345.47;;;14.27;68.75
24962;BME280;12992;50.884;13.668;2023-04-23T01:50:01;96346.00;;;14.15;74.07
24962;BME280;12992;50.884;13.668;2023-04-23T01:52:28;96348.81;;;14.10;71.08
24962;BME280;12992;50.884;13.668;2023-04-23T01:54:53;96346.38;;;14.08;72.66
24962;BME280;12992;50.884;13.668;2023-04-23T01:57:19;96357.72;;;14.02;75.48
24962;BME280;12992;50.884;13.668;2023-04-23T01:59:48;96349.25;;;13.71;83.62
24962;BME280;12992;50.884;13.668;2023-04-23T02:02:14;96352.84;;;13.66;79.98
24962;BME280;12992;50.884;13.668;2023-04-23T02:04:43;96352.97;;;13.61;77.98
24962;BME280;12992;50.884;13.668;2023-04-23T02:07:09;96358.00;;;13.54;81.98
24962;BME280;12992;50.884;13.668;2023-04-23T02:09:34;96368.09;;;13.72;74.19
24962;BME280;12992;50.884;13.668;2023-04-23T02:12:00;96392.28;;;13.98;72.38
24962;BME280;12992;50.884;13.668;2023-04-23T02:14:26;96400.75;;;14.29;70.34
24962;BME280;12992;50.884;13.668;2023-04-23T02:16:51;96405.91;;;14.49;69.54
24962;BME280;12992;50.884;13.668;2023-04-23T02:19:16;96414.13;;;14.63;68.35
24962;BME280;12992;50.884;13.668;2023-04-23T02:21:42;96423.16;;;14.77;67.33
24962;BME280;12992;50.884;13.668;2023-04-23T02:24:07;96414.63;;;14.79;67.57
24962;BME280;12992;50.884;13.668;2023-04-23T02:26:32;96414.81;;;14.82;69.15
24962;BME280;12992;50.884;13.668;2023-04-23T02:28:58;96424.78;;;14.78;71.19
24962;BME280;12992;50.884;13.668;2023-04-23T02:31:23;96417.69;;;14.77;71.30
24962;BME280;12992;50.884;13.668;2023-04-23T02:33:48;96416.97;;;14.71;71.18
24962;BME280;12992;50.884;13.668;2023-04-23T02:36:14;96433.94;;;14.87;71.96
24962;BME280;12992;50.884;13.668;2023-04-23T02:38:40;96448.03;;;14.94;72.21
24962;BME280;12992;50.884;13.668;2023-04-23T02:41:10;96437.16;;;14.89;73.43
24962;BME280;12992;50.884;13.668;2023-04-23T02:43:36;96434.13;;;14.91;74.81
24962;BME280;12992;50.884;13.668;2023-04-23T02:46:01;96420.22;;;14.87;76.01
24962;BME280;12992;50.884;13.668;2023-04-23T02:48:35;96425.38;;;14.89;74.91
24962;BME280;12992;50.884;13.668;2023-04-23T02:51:01;96447.72;;;15.10;73.30
24962;BME280;12992;50.884;13.668;2023-04-23T02:53:27;96435.53;;;15.16;72.87
24962;BME280;12992;50.884;13.668;2023-04-23T02:55:52;96434.31;;;15.22;72.44
24962;BME280;12992;50.884;13.668;2023-04-23T02:58:18;96407.69;;;15.09;73.05
24962;BME280;12992;50.884;13.668;2023-04-23T03:00:47;96409.84;;;15.12;71.92
24962;BME280;12992;50.884;13.668;2023-04-23T03:03:12;96409.44;;;15.05;74.02
24962;BME280;12992;50.884;13.668;2023-04-23T03:05:37;96417.44;;;15.01;76.77
24962;BME280;12992;50.884;13.668;2023-04-23T03:08:03;96404.47;;;15.07;74.42
24962;BME280;12992;50.884;13.668;2023-04-23T03:10:28;96397.44;;;15.00;75.68
24962;BME280;12992;50.884;13.668;2023-04-23T03:12:54;96399.38;;;15.00;76.83
24962;BME280;12992;50.884;13.668;2023-04-23T03:15:20;96365.94;;;14.76;79.46
24962;BME280;12992;50.884;13.668;2023-04-23T03:17:46;96359.00;;;14.64;79.47
24962;BME280;12992;50.884;13.668;2023-04-23T03:20:11;96365.50;;;14.82;77.82
24962;BME280;12992;50.884;13.668;2023-04-23T03:22:38;96359.41;;;14.85;77.74
24962;BME280;12992;50.884;13.668;2023-04-23T03:25:05;96374.31;;;14.93;79.03
24962;BME280;12992;50.884;13.668;2023-04-23T03:27:30;96380.63;;;14.93;80.08
24962;BME280;12992;50.884;13.668;2023-04-23T03:29:56;96383.38;;;14.93;79.86
24962;BME280;12992;50.884;13.668;2023-04-23T03:32:21;96380.63;;;14.93;80.65
24962;BME280;12992;50.884;13.668;2023-04-23T03:34:47;96382.34;;;14.89;81.81
24962;BME280;12992;50.884;13.668;2023-04-23T03:37:12;96392.69;;;14.92;82.01
24962;BME280;12992;50.884;13.668;2023-04-23T03:39:37;96390.25;;;14.91;82.95
24962;BME280;12992;50.884;13.668;2023-04-23T03:42:04;96406.13;;;14.94;83.24
24962;BME280;12992;50.884;13.668;2023-04-23T03:44:29;96404.69;;;14.96;83.78
24962;BME280;12992;50.884;13.668;2023-04-23T03:46:55;96395.97;;;14.94;83.85
24962;BME280;12992;50.884;13.668;2023-04-23T03:49:20;96393.22;;;14.94;84.31
24962;BME280;12992;50.884;13.668;2023-04-23T03:51:47;96389.84;;;14.97;83.76
24962;BME280;12992;50.884;13.668;2023-04-23T03:54:12;96400.19;;;15.00;83.66
24962;BME280;12992;50.884;13.668;2023-04-23T03:56:40;96394.13;;;15.04;83.75
24962;BME280;12992;50.884;13.668;2023-04-23T03:59:19;96392.69;;;15.06;82.83
24962;BME280;12992;50.884;13.668;2023-04-23T04:01:47;96398.34;;;15.10;82.83
24962;BME280;12992;50.884;13.668;2023-04-23T04:04:13;96398.88;;;15.12;82.54
24962;BME280;12992;50.884;13.668;2023-04-23T04:06:39;96391.16;;;15.14;82.54
24962;BME280;12992;50.884;13.668;2023-04-23T04:09:04;96389.22;;;15.14;82.85
24962;BME280;12992;50.884;13.668;2023-04-23T04:11:31;96393.69;;;15.10;82.87
24962;BME280;12992;50.884;13.668;2023-04-23T04:13:57;96392.28;;;15.13;83.51
24962;BME280;12992;50.884;13.668;2023-04-23T04:16:22;96400.81;;;15.11;85.39
24962;BME280;12992;50.884;13.668;2023-04-23T04:18:47;96401.00;;;15.15;84.03
24962;BME280;12992;50.884;13.668;2023-04-23T04:21:13;96404.16;;;15.08;86.52
24962;BME280;12992;50.884;13.668;2023-04-23T04:23:40;96403.84;;;15.10;85.22
24962;BME280;12992;50.884;13.668;2023-04-23T04:26:05;96415.84;;;15.14;85.89
24962;BME280;12992;50.884;13.668;2023-04-23T04:28:32;96418.25;;;15.15;85.19
24962;BME280;12992;50.884;13.668;2023-04-23T04:31:00;96418.16;;;15.20;84.56
24962;BME280;12992;50.884;13.668;2023-04-23T04:33:26;96428.81;;;15.22;85.00
24962;BME280;12992;50.884;13.668;2023-04-23T04:35:53;96431.34;;;15.32;83.67
24962;BME280;12992;50.884;13.668;2023-04-23T04:38:19;96438.34;;;15.38;82.93
24962;BME280;12992;50.884;13.668;2023-04-23T04:40:45;96430.78;;;15.44;82.65
24962;BME280;12992;50.884;13.668;2023-04-23T04:43:12;96447.97;;;15.49;83.08
24962;BME280;12992;50.884;13.668;2023-04-23T04:45:38;96439.59;;;15.54;82.29
24962;BME280;12992;50.884;13.668;2023-04-23T04:48:03;96438.50;;;15.55;82.17
24962;BME280;12992;50.884;13.668;2023-04-23T04:50:29;96442.97;;;15.65;80.80
24962;BME280;12992;50.884;13.668;2023-04-23T04:52:54;96436.88;;;15.68;80.27
24962;BME280;12992;50.884;13.668;2023-04-23T04:55:19;96438.97;;;15.71;81.64
24962;BME280;12992;50.884;13.668;2023-04-23T04:57:45;96436.56;;;15.70;83.00
24962;BME280;12992;50.884;13.668;2023-04-23T05:00:24;96433.19;;;15.59;83.75
24962;BME280;12992;50.884;13.668;2023-04-23T05:02:52;96433.13;;;15.50;86.62
24962;BME280;12992;50.884;13.668;2023-04-23T05:05:18;96444.09;;;15.50;86.03
24962;BME280;12992;50.884;13.668;2023-04-23T05:07:44;96455.88;;;15.51;84.81
24962;BME280;12992;50.884;13.668;2023-04-23T05:10:10;96456.19;;;15.49;87.90
24962;BME280;12992;50.884;13.668;2023-04-23T05:12:35;96451.53;;;15.50;81.78
24962;BME280;12992;50.884;13.668;2023-04-23T05:15:01;96455.56;;;15.52;82.95
24962;BME280;12992;50.884;13.668;2023-04-23T05:17:28;96456.06;;;15.54;86.91
24962;BME280;12992;50.884;13.668;2023-04-23T05:19:53;96460.47;;;15.55;85.07
24962;BME280;12992;50.884;13.668;2023-04-23T05:22:19;96450.91;;;15.53;85.32
24962;BME280;12992;50.884;13.668;2023-04-23T05:24:44;96462.09;;;15.56;84.38
24962;BME280;12992;50.884;13.668;2023-04-23T05:27:10;96468.38;;;15.57;84.47
24962;BME280;12992;50.884;13.668;2023-04-23T05:29:36;96466.94;;;15.59;84.48
24962;BME280;12992;50.884;13.668;2023-04-23T05:32:01;96475.38;;;15.63;86.04
24962;BME280;12992;50.884;13.668;2023-04-23T05:34:26;96484.03;;;15.70;86.10
24962;BME280;12992;50.884;13.668;2023-04-23T05:36:52;96485.03;;;15.74;86.01
24962;BME280;12992;50.884;13.668;2023-04-23T05:39:17;96487.56;;;15.84;86.81
24962;BME280;12992;50.884;13.668;2023-04-23T05:41:42;96495.88;;;15.93;86.88
24962;BME280;12992;50.884;13.668;2023-04-23T05:44:08;96488.75;;;15.92;89.50
24962;BME280;12992;50.884;13.668;2023-04-23T05:46:33;96495.38;;;15.91;91.79
24962;BME280;12992;50.884;13.668;2023-04-23T05:48:59;96484.97;;;15.88;89.69
24962;BME280;12992;50.884;13.668;2023-04-23T05:51:24;96471.88;;;15.85;83.11
24962;BME280;12992;50.884;13.668;2023-04-23T05:53:50;96475.34;;;15.91;85.19
24962;BME280;12992;50.884;13.668;2023-04-23T05:56:15;96477.25;;;15.90;84.58
24962;BME280;12992;50.884;13.668;2023-04-23T05:58:40;96483.75;;;15.94;84.23
24962;BME280;12992;50.884;13.668;2023-04-23T06:01:06;96486.25;;;16.04;82.56
24962;BME280;12992;50.884;13.668;2023-04-23T06:03:31;96493.94;;;16.16;82.85
24962;BME280;12992;50.884;13.668;2023-04-23T06:05:56;96507.44;;;16.26;84.95
24962;BME280;12992;50.884;13.668;2023-04-23T06:08:22;96500.19;;;16.30;85.41
24962;BME280;12992;50.884;13.668;2023-04-23T06:10:47;96496.31;;;16.31;82.50
24962;BME280;12992;50.884;13.668;2023-04-23T06:13:13;96499.00;;;16.45;81.13
24962;BME280;12992;50.884;13.668;2023-04-23T06:15:38;96504.25;;;16.55;79.51
24962;BME280;12992;50.884;13.668;2023-04-23T06:18:03;96503.09;;;16.56;80.66
24962;BME280;12992;50.884;13.668;2023-04-23T06:20:29;96515.69;;;16.71;77.49
24962;BME280;12992;50.884;13.668;2023-04-23T06:22:54;96500.41;;;16.65;79.37
24962;BME280;12992;50.884;13.668;2023-04-23T06:25:19;96516.97;;;16.74;79.64
24962;BME280;12992;50.884;13.668;2023-04-23T06:27:45;96526.72;;;16.80;80.78
24962;BME280;12992;50.884;13.668;2023-04-23T06:30:17;96509.44;;;16.79;76.08
24962;BME280;12992;50.884;13.668;2023-04-23T06:32:42;96494.22;;;16.59;82.69
24962;BME280;12992;50.884;13.668;2023-04-23T06:35:08;96501.50;;;16.55;80.81
24962;BME280;12992;50.884;13.668;2023-04-23T06:37:33;96502.13;;;16.52;78.19
24962;BME280;12992;50.884;13.668;2023-04-23T06:39:58;96480.19;;;16.38;77.53
24962;BME280;12992;50.884;13.668;2023-04-23T06:42:24;96496.81;;;16.33;80.29
24962;BME280;12992;50.884;13.668;2023-04-23T06:45:12;96487.91;;;16.28;80.56
24962;BME280;12992;50.884;13.668;2023-04-23T06:47:39;96493.19;;;16.24;80.69
24962;BME280;12992;50.884;13.668;2023-04-23T06:50:05;96497.47;;;16.17;81.88
24962;BME280;12992;50.884;13.668;2023-04-23T06:52:31;96500.75;;;16.19;81.03
24962;BME280;12992;50.884;13.668;2023-04-23T06:54:56;96478.00;;;16.04;82.62
24962;BME280;12992;50.884;13.668;2023-04-23T06:57:21;96499.00;;;16.00;83.72
24962;BME280;12992;50.884;13.668;2023-04-23T06:59:47;96501.44;;;16.02;83.13
24962;BME280;12992;50.884;13.668;2023-04-23T07:02:13;96520.72;;;16.10;84.08
24962;BME280;12992;50.884;13.668;2023-04-23T07:04:38;96511.91;;;16.00;86.67
24962;BME280;12992;50.884;13.668;2023-04-23T07:07:03;96512.19;;;15.98;85.67
24962;BME280;12992;50.884;13.668;2023-04-23T07:09:29;96511.63;;;15.88;84.68
24962;BME280;12992;50.884;13.668;2023-04-23T07:11:55;96520.69;;;15.88;86.78
24962;BME280;12992;50.884;13.668;2023-04-23T07:14:20;96521.72;;;15.78;87.01
24962;BME280;12992;50.884;13.668;2023-04-23T07:16:45;96528.34;;;15.77;87.14
24962;BME280;12992;50.884;13.668;2023-04-23T07:19:11;96531.91;;;15.78;90.07
24962;BME280;12992;50.884;13.668;2023-04-23T07:21:36;96538.00;;;15.75;91.42
24962;BME280;12992;50.884;13.668;2023-04-23T07:24:01;96526.63;;;15.68;91.68
24962;BME280;12992;50.884;13.668;2023-04-23T07:26:31;96523.28;;;15.57;89.81
24962;BME280;12992;50.884;13.668;2023-04-23T07:28:57;96510.59;;;15.47;90.83
24962;BME280;12992;50.884;13.668;2023-04-23T07:31:22;96512.91;;;15.40;92.25
24962;BME280;12992;50.884;13.668;2023-04-23T07:33:48;96505.22;;;15.28;91.74
24962;BME280;12992;50.884;13.668;2023-04-23T07:36:13;96539.72;;;15.43;95.56
24962;BME280;12992;50.884;13.668;2023-04-23T07:38:39;96550.94;;;15.61;94.30
24962;BME280;12992;50.884;13.668;2023-04-23T07:41:05;96564.22;;;15.81;94.06
24962;BME280;12992;50.884;13.668;2023-04-23T07:43:30;96589.00;;;16.03;94.35
24962;BME280;12992;50.884;13.668;2023-04-23T07:45:55;96596.53;;;16.34;94.54
24962;BME280;12992;50.884;13.668;2023-04-23T07:48:21;96602.56;;;16.58;89.31
24962;BME280;12992;50.884;13.668;2023-04-23T07:50:46;96601.25;;;16.78;89.98
24962;BME280;12992;50.884;13.668;2023-04-23T07:53:11;96571.53;;;16.80;84.50
24962;BME280;12992;50.884;13.668;2023-04-23T07:55:37;96565.97;;;16.72;83.41
24962;BME280;12992;50.884;13.668;2023-04-23T07:58:02;96555.59;;;16.68;84.91
24962;BME280;12992;50.884;13.668;2023-04-23T08:00:27;96587.94;;;16.94;86.41
24962;BME280;12992;50.884;13.668;2023-04-23T08:02:53;96618.50;;;17.46;86.97
24962;BME280;12992;50.884;13.668;2023-04-23T08:05:18;96611.66;;;17.74;81.84
24962;BME280;12992;50.884;13.668;2023-04-23T08:07:43;96610.28;;;17.94;79.95
24962;BME280;12992;50.884;13.668;2023-04-23T08:10:09;96599.44;;;18.15;79.21
24962;BME280;12992;50.884;13.668;2023-04-23T08:12:34;96598.81;;;18.35;77.67
24962;BME280;12992;50.884;13.668;2023-04-23T08:15:00;96622.19;;;18.90;76.40
24962;BME280;12992;50.884;13.668;2023-04-23T08:17:32;96612.94;;;19.03;76.21
24962;BME280;12992;50.884;13.668;2023-04-23T08:19:58;96597.03;;;18.91;73.41
24962;BME280;12992;50.884;13.668;2023-04-23T08:22:23;96560.41;;;18.56;74.18
24962;BME280;12992;50.884;13.668;2023-04-23T08:24:48;96525.53;;;18.17;75.67
24962;BME280;12992;50.884;13.668;2023-04-23T08:27:14;96575.00;;;18.31;78.41
24962;BME280;12992;50.884;13.668;2023-04-23T08:29:39;96587.16;;;18.47;77.30
24962;BME280;12992;50.884;13.668;2023-04-23T08:32:04;96567.03;;;18.29;76.51
24962;BME280;12992;50.884;13.668;2023-04-23T08:34:30;96567.53;;;18.23;78.26
24962;BME280;12992;50.884;13.668;2023-04-23T08:36:55;96618.34;;;18.65;78.57
24962;BME280;12992;50.884;13.668;2023-04-23T08:39:21;96580.50;;;18.57;75.22
24962;BME280;12992;50.884;13.668;2023-04-23T08:41:53;96573.03;;;18.40;75.96
24962;BME280;12992;50.884;13.668;2023-04-23T08:44:24;96535.56;;;17.96;78.40
24962;BME280;12992;50.884;13.668;2023-04-23T08:46:52;96526.84;;;17.45;80.72
24962;BME280;12992;50.884;13.668;2023-04-23T08:49:18;96525.97;;;17.27;82.13
24962;BME280;12992;50.884;13.668;2023-04-23T08:51:52;96533.03;;;17.11;83.68
24962;BME280;12992;50.884;13.668;2023-04-23T08:54:25;96530.63;;;16.79;85.41
24962;BME280;12992;50.884;13.668;2023-04-23T08:56:54;96534.13;;;16.70;86.71
24962;BME280;12992;50.884;13.668;2023-04-23T08:59:21;96537.59;;;16.62;88.57
24962;BME280;12992;50.884;13.668;2023-04-23T09:01:47;96544.28;;;16.48;91.16
24962;BME280;12992;50.884;13.668;2023-04-23T09:04:13;96535.19;;;16.25;92.28
24962;BME280;12992;50.884;13.668;2023-04-23T09:06:42;96530.09;;;16.09;91.01
24962;BME280;12992;50.884;13.668;2023-04-23T09:09:08;96532.47;;;15.89;93.59
24962;BME280;12992;50.884;13.668;2023-04-23T09:11:35;96543.69;;;15.78;94.69
24962;BME280;12992;50.884;13.668;2023-04-23T09:14:01;96549.31;;;15.73;94.95
24962;BME280;12992;50.884;13.668;2023-04-23T09:16:27;96545.22;;;15.57;96.23
24962;BME280;12992;50.884;13.668;2023-04-23T09:18:52;96550.31;;;15.50;97.86
24962;BME280;12992;50.884;13.668;2023-04-23T09:21:19;96562.59;;;15.52;98.25
24962;BME280;12992;50.884;13.668;2023-04-23T09:23:44;96596.66;;;15.79;96.88
24962;BME280;12992;50.884;13.668;2023-04-23T09:26:18;96634.59;;;16.40;94.15
24962;BME280;12992;50.884;13.668;2023-04-23T09:28:48;96673.13;;;17.30;87.92
24962;BME280;12992;50.884;13.668;2023-04-23T09:31:18;96679.34;;;18.06;84.00
24962;BME280;12992;50.884;13.668;2023-04-23T09:33:49;96630.41;;;18.12;79.00
24962;BME280;12992;50.884;13.668;2023-04-23T09:36:15;96560.47;;;17.34;79.79
24962;BME280;12992;50.884;13.668;2023-04-23T09:38:40;96544.13;;;16.97;81.21
24962;BME280;12992;50.884;13.668;2023-04-23T09:41:26;96552.25;;;16.72;83.18
24962;BME280;12992;50.884;13.668;2023-04-23T09:43:55;96549.50;;;16.58;82.33
24962;BME280;12992;50.884;13.668;2023-04-23T09:46:43;96535.16;;;16.38;81.43
24962;BME280;12992;50.884;13.668;2023-04-23T09:49:10;96606.66;;;16.83;82.00
24962;BME280;12992;50.884;13.668;2023-04-23T09:51:39;96637.50;;;17.25;82.78
24962;BME280;12992;50.884;13.668;2023-04-23T09:54:12;96632.13;;;17.51;77.90
24962;BME280;12992;50.884;13.668;2023-04-23T09:56:39;96600.69;;;17.43;76.64
24962;BME280;12992;50.884;13.668;2023-04-23T09:59:24;96579.03;;;17.19;77.65
24962;BME280;12992;50.884;13.668;2023-04-23T10:01:50;96572.94;;;17.00;79.19
24962;BME280;12992;50.884;13.668;2023-04-23T10:04:22;96533.81;;;16.72;78.80
24962;BME280;12992;50.884;13.668;2023-04-23T10:06:59;96543.34;;;16.52;81.91
24962;BME280;12992;50.884;13.668;2023-04-23T10:09:26;96571.56;;;16.66;85.40
24962;BME280;12992;50.884;13.668;2023-04-23T10:11:54;96563.97;;;16.63;82.08
24962;BME280;12992;50.884;13.668;2023-04-23T10:14:24;96586.84;;;16.73;83.37
24962;BME280;12992;50.884;13.668;2023-04-23T10:16:50;96587.03;;;16.76;81.66
24962;BME280;12992;50.884;13.668;2023-04-23T10:19:21;96588.97;;;16.76;83.05
24962;BME280;12992;50.884;13.668;2023-04-23T10:21:56;96565.19;;;16.57;84.21
24962;BME280;12992;50.884;13.668;2023-04-23T10:24:25;96551.31;;;16.40;86.10
24962;BME280;12992;50.884;13.668;2023-04-23T10:26:56;96541.50;;;16.25;89.30
24962;BME280;12992;50.884;13.668;2023-04-23T10:29:30;96552.38;;;16.30;91.84
24962;BME280;12992;50.884;13.668;2023-04-23T10:31:58;96562.19;;;16.23;90.13
24962;BME280;12992;50.884;13.668;2023-04-23T10:34:25;96575.19;;;16.31;92.74
24962;BME280;12992;50.884;13.668;2023-04-23T10:36:51;96586.66;;;16.33;89.37
24962;BME280;12992;50.884;13.668;2023-04-23T10:39:19;96629.63;;;16.65;94.97
24962;BME280;12992;50.884;13.668;2023-04-23T10:41:45;96652.63;;;17.14;96.45
24962;BME280;12992;50.884;13.668;2023-04-23T10:44:13;96643.72;;;17.39;82.01
24962;BME280;12992;50.884;13.668;2023-04-23T10:46:51;96685.94;;;17.97;84.61
24962;BME280;12992;50.884;13.668;2023-04-23T10:49:16;96694.16;;;18.45;79.33
24962;BME280;12992;50.884;13.668;2023-04-23T10:51:45;96680.25;;;18.59;76.86
24962;BME280;12992;50.884;13.668;2023-04-23T10:54:15;96654.81;;;18.71;76.55
24962;BME280;12992;50.884;13.668;2023-04-23T10:56:43;96670.72;;;18.91;77.88
24962;BME280;12992;50.884;13.668;2023-04-23T10:59:20;96607.56;;;18.55;74.45
24962;BME280;12992;50.884;13.668;2023-04-23T11:01:46;96626.06;;;18.63;76.44
24962;BME280;12992;50.884;13.668;2023-04-23T11:04:23;96653.53;;;18.94;75.95
24962;BME280;12992;50.884;13.668;2023-04-23T11:06:52;96647.97;;;19.20;72.31
24962;BME280;12992;50.884;13.668;2023-04-23T11:09:38;96683.09;;;19.75;72.63
24962;BME280;12992;50.884;13.668;2023-04-23T11:12:06;96645.19;;;19.84;68.80
24962;BME280;12992;50.884;13.668;2023-04-23T11:14:33;96629.63;;;19.79;71.85
24962;BME280;12992;50.884;13.668;2023-04-23T11:17:01;96636.75;;;19.80;69.71
24962;BME280;12992;50.884;13.668;2023-04-23T11:19:26;96653.91;;;19.95;71.42
24962;BME280;12992;50.884;13.668;2023-04-23T11:22:01;96583.06;;;19.43;69.71
24962;BME280;12992;50.884;13.668;2023-04-23T11:26:53;96583.19;;;19.17;71.46
24962;BME280;12992;50.884;13.668;2023-04-23T11:29:24;96569.75;;;18.90;72.38
24962;BME280;12992;50.884;13.668;2023-04-23T11:31:50;96568.16;;;18.80;71.36
24962;BME280;12992;50.884;13.668;2023-04-23T11:34:16;96674.50;;;19.68;75.26
24962;BME280;12992;50.884;13.668;2023-04-23T11:36:42;96632.44;;;19.62;73.06
24962;BME280;12992;50.884;13.668;2023-04-23T11:39:08;96596.31;;;19.29;74.06
24962;BME280;12992;50.884;13.668;2023-04-23T11:41:37;96545.28;;;18.54;73.80
24962;BME280;12992;50.884;13.668;2023-04-23T11:44:03;96526.19;;;18.14;76.99
24962;BME280;12992;50.884;13.668;2023-04-23T11:46:29;96535.72;;;18.08;78.97
24962;BME280;12992;50.884;13.668;2023-04-23T11:48:55;96539.44;;;17.86;84.66
24962;BME280;12992;50.884;13.668;2023-04-23T11:51:26;96567.03;;;18.03;83.45
24962;BME280;12992;50.884;13.668;2023-04-23T11:53:51;96534.28;;;17.85;78.17
24962;BME280;12992;50.884;13.668;2023-04-23T11:56:18;96525.81;;;17.72;77.88
24962;BME280;12992;50.884;13.668;2023-04-23T11:58:44;96549.94;;;17.75;82.37
24962;BME280;12992;50.884;13.668;2023-04-23T12:01:10;96539.69;;;17.59;85.22
24962;BME280;12992;50.884;13.668;2023-04-23T12:03:38;96547.78;;;17.64;85.02
24962;BME280;12992;50.884;13.668;2023-04-23T12:06:04;96553.28;;;17.64;87.76
24962;BME280;12992;50.884;13.668;2023-04-23T12:08:33;96543.81;;;17.39;92.14
24962;BME280;12992;50.884;13.668;2023-04-23T12:11:01;96525.50;;;16.94;93.19
24962;BME280;12992;50.884;13.668;2023-04-23T12:13:29;96538.34;;;16.77;96.56
24962;BME280;12992;50.884;13.668;2023-04-23T12:16:00;96541.66;;;16.65;98.83
24962;BME280;12992;50.884;13.668;2023-04-23T12:18:26;96551.06;;;16.50;99.27
24962;BME280;12992;50.884;13.668;2023-04-23T12:20:52;96571.66;;;16.53;100.00
24962;BME280;12992;50.884;13.668;2023-04-23T12:23:17;96585.59;;;16.79;97.41
24962;BME280;12992;50.884;13.668;2023-04-23T12:25:42;96622.25;;;17.19;95.56
24962;BME280;12992;50.884;13.668;2023-04-23T12:28:08;96636.84;;;17.59;92.42
24962;BME280;12992;50.884;13.668;2023-04-23T12:30:40;96639.59;;;17.99;88.03
24962;BME280;12992;50.884;13.668;2023-04-23T12:33:10;96654.28;;;18.43;83.69
24962;BME280;12992;50.884;13.668;2023-04-23T12:35:42;96651.91;;;18.67;83.66
24962;BME280;12992;50.884;13.668;2023-04-23T12:38:27;96678.97;;;19.17;84.85
24962;BME280;12992;50.884;13.668;2023-04-23T12:40:55;96650.19;;;19.44;74.32
24962;BME280;12992;50.884;13.668;2023-04-23T12:43:21;96626.66;;;19.29;79.68
24962;BME280;12992;50.884;13.668;2023-04-23T12:45:46;96625.53;;;19.21;78.22
24962;BME280;12992;50.884;13.668;2023-04-23T12:48:12;96570.44;;;18.78;75.58
24962;BME280;12992;50.884;13.668;2023-04-23T12:50:38;96603.38;;;18.83;80.06